sensor_id;sensor_type;location;lat;lon;timestamp;temperature;humidity
2839;DHT22;1427;48.510;9.060;2022-11-10T00:01:10;11.20;99.90
2839;DHT22;1427;48.510;9.060;2022-11-10T00:03:38;11.30;99.90
2839;DHT22;1427;48.510;9.060;2022-11-10T00:06:08;11.30;99.90
2839;DHT22;1427;48.510;9.060;2022-11-10T00:08:37;11.20;99.90
2839;DHT22;1427;48.510;9.060;2022-11-10T00:11:06;11.20;99.90
2839;DHT22;1427;48.510;9.060;2022-11-10T00:13:36;11.20;99.90
2839;DHT22;1427;48.510;9.060;2022-11-10T00:16:25;11.20;99.90
2839;DHT22;1427;48.510;9.060;2022-11-10T00:19:11;11.40;99.90
2839;DHT22;1427;48.510;9.060;2022-11-10T00:21:39;11.20;99.90
2839;DHT22;1427;48.510;9.060;2022-11-10T00:24:08;11.30;99.90
2839;DHT22;1427;48.510;9.060;2022-11-10T00:26:37;11.30;99.90
2839;DHT22;1427;48.510;9.060;2022-11-10T00:29:05;11.30;99.90
2839;DHT22;1427;48.510;9.060;2022-11-10T00:31:33;11.40;99.90
2839;DHT22;1427;48.510;9.060;2022-11-10T00:34:01;11.20;99.90
2839;DHT22;1427;48.510;9.060;2022-11-10T00:36:29;11.20;99.90
2839;DHT22;1427;48.510;9.060;2022-11-10T00:38:57;11.20;99.90
2839;DHT22;1427;48.510;9.060;2022-11-10T00:41:27;11.10;99.90
2839;DHT22;1427;48.510;9.060;2022-11-10T00:43:55;11.10;99.90
2839;DHT22;1427;48.510;9.060;2022-11-10T00:46:23;11.00;99.90
2839;DHT22;1427;48.510;9.060;2022-11-10T00:48:52;11.10;99.90
2839;DHT22;1427;48.510;9.060;2022-11-10T00:51:22;11.10;99.90
2839;DHT22;1427;48.510;9.060;2022-11-10T00:53:51;11.00;99.90
2839;DHT22;1427;48.510;9.060;2022-11-10T00:56:20;11.00;99.90
2839;DHT22;1427;48.510;9.060;2022-11-10T00:58:50;10.90;99.90
2839;DHT22;1427;48.510;9.060;2022-11-10T01:01:20;10.90;99.90
2839;DHT22;1427;48.510;9.060;2022-11-10T01:03:50;10.90;99.90
2839;DHT22;1427;48.510;9.060;2022-11-10T01:06:19;11.00;99.90
2839;DHT22;1427;48.510;9.060;2022-11-10T01:08:48;10.90;99.90
2839;DHT22;1427;48.510;9.060;2022-11-10T01:11:17;11.00;99.90
2839;DHT22;1427;48.510;9.060;2022-11-10T01:13:46;11.00;99.90
2839;DHT22;1427;48.510;9.060;2022-11-10T01:16:19;11.00;99.90
2839;DHT22;1427;48.510;9.060;2022-11-10T01:18:49;11.00;99.90
2839;DHT22;1427;48.510;9.060;2022-11-10T01:21:17;10.90;99.90
2839;DHT22;1427;48.510;9.060;2022-11-10T01:23:45;10.90;99.90
2839;DHT22;1427;48.510;9.060;2022-11-10T01:26:15;10.90;99.90
2839;DHT22;1427;48.510;9.060;2022-11-10T01:28:43;10.90;99.90
2839;DHT22;1427;48.510;9.060;2022-11-10T01:31:13;10.70;99.90
2839;DHT22;1427;48.510;9.060;2022-11-10T01:33:43;10.70;99.90
2839;DHT22;1427;48.510;9.060;2022-11-10T01:36:11;10.60;99.90
2839;DHT22;1427;48.510;9.060;2022-11-10T01:38:41;10.50;99.90
2839;DHT22;1427;48.510;9.060;2022-11-10T01:41:12;10.40;99.90
2839;DHT22;1427;48.510;9.060;2022-11-10T01:43:41;10.40;99.90
2839;DHT22;1427;48.510;9.060;2022-11-10T01:46:10;10.40;99.90
2839;DHT22;1427;48.510;9.060;2022-11-10T01:48:44;10.40;99.90
2839;DHT22;1427;48.510;9.060;2022-11-10T01:51:16;10.30;99.90
2839;DHT22;1427;48.510;9.060;2022-11-10T01:53:48;10.30;99.90
2839;DHT22;1427;48.510;9.060;2022-11-10T01:56:17;10.40;99.90
2839;DHT22;1427;48.510;9.060;2022-11-10T01:58:49;10.40;99.90
2839;DHT22;1427;48.510;9.060;2022-11-10T02:01:19;10.50;99.90
2839;DHT22;1427;48.510;9.060;2022-11-10T02:03:50;10.50;99.90
2839;DHT22;1427;48.510;9.060;2022-11-10T02:06:22;10.60;99.90
2839;DHT22;1427;48.510;9.060;2022-11-10T02:08:51;10.50;99.90
2839;DHT22;1427;48.510;9.060;2022-11-10T02:11:21;10.50;99.90
2839;DHT22;1427;48.510;9.060;2022-11-10T02:13:49;10.40;99.90
2839;DHT22;1427;48.510;9.060;2022-11-10T02:16:18;10.30;99.90
2839;DHT22;1427;48.510;9.060;2022-11-10T02:18:47;10.30;99.90
2839;DHT22;1427;48.510;9.060;2022-11-10T02:21:17;10.20;99.90
2839;DHT22;1427;48.510;9.060;2022-11-10T02:23:47;10.30;99.90
2839;DHT22;1427;48.510;9.060;2022-11-10T02:26:19;10.10;99.90
2839;DHT22;1427;48.510;9.060;2022-11-10T02:28:48;10.10;99.90
2839;DHT22;1427;48.510;9.060;2022-11-10T02:31:16;10.10;99.90
2839;DHT22;1427;48.510;9.060;2022-11-10T02:33:44;10.00;99.90
2839;DHT22;1427;48.510;9.060;2022-11-10T02:36:13;10.00;99.90
2839;DHT22;1427;48.510;9.060;2022-11-10T02:38:42;10.00;99.90
2839;DHT22;1427;48.510;9.060;2022-11-10T02:41:10;10.00;99.90
2839;DHT22;1427;48.510;9.060;2022-11-10T02:43:38;9.80;99.90
2839;DHT22;1427;48.510;9.060;2022-11-10T02:46:06;9.70;99.90
2839;DHT22;1427;48.510;9.060;2022-11-10T02:48:34;9.60;99.90
2839;DHT22;1427;48.510;9.060;2022-11-10T02:51:03;9.60;99.90
2839;DHT22;1427;48.510;9.060;2022-11-10T02:53:31;9.60;99.90
2839;DHT22;1427;48.510;9.060;2022-11-10T02:56:00;9.60;99.90
2839;DHT22;1427;48.510;9.060;2022-11-10T02:58:28;9.60;99.90
2839;DHT22;1427;48.510;9.060;2022-11-10T03:00:56;9.50;99.90
2839;DHT22;1427;48.510;9.060;2022-11-10T03:03:25;9.50;99.90
2839;DHT22;1427;48.510;9.060;2022-11-10T03:05:53;9.50;99.90
2839;DHT22;1427;48.510;9.060;2022-11-10T03:08:21;9.50;99.90
2839;DHT22;1427;48.510;9.060;2022-11-10T03:10:52;9.50;99.90
2839;DHT22;1427;48.510;9.060;2022-11-10T03:13:22;9.50;99.90
2839;DHT22;1427;48.510;9.060;2022-11-10T03:16:06;9.40;99.90
2839;DHT22;1427;48.510;9.060;2022-11-10T03:18:34;9.40;99.90
2839;DHT22;1427;48.510;9.060;2022-11-10T03:21:02;9.40;99.90
2839;DHT22;1427;48.510;9.060;2022-11-10T03:23:31;9.40;99.90
2839;DHT22;1427;48.510;9.060;2022-11-10T03:26:02;9.40;99.90
2839;DHT22;1427;48.510;9.060;2022-11-10T03:28:32;9.30;99.90
2839;DHT22;1427;48.510;9.060;2022-11-10T03:31:01;9.30;99.90
2839;DHT22;1427;48.510;9.060;2022-11-10T03:33:29;9.30;99.90
2839;DHT22;1427;48.510;9.060;2022-11-10T03:35:57;9.30;99.90
2839;DHT22;1427;48.510;9.060;2022-11-10T03:38:25;9.30;99.90
2839;DHT22;1427;48.510;9.060;2022-11-10T03:40:53;9.20;99.90
2839;DHT22;1427;48.510;9.060;2022-11-10T03:43:43;9.20;99.90
2839;DHT22;1427;48.510;9.060;2022-11-10T03:46:11;9.20;99.90
2839;DHT22;1427;48.510;9.060;2022-11-10T03:48:39;9.00;99.90
2839;DHT22;1427;48.510;9.060;2022-11-10T03:51:07;9.00;99.90
2839;DHT22;1427;48.510;9.060;2022-11-10T03:53:35;8.90;99.90
2839;DHT22;1427;48.510;9.060;2022-11-10T03:56:05;8.90;99.90
2839;DHT22;1427;48.510;9.060;2022-11-10T03:58:33;9.00;99.90
2839;DHT22;1427;48.510;9.060;2022-11-10T04:01:02;9.00;99.90
2839;DHT22;1427;48.510;9.060;2022-11-10T04:03:31;9.00;99.90
2839;DHT22;1427;48.510;9.060;2022-11-10T04:05:59;8.90;99.90
2839;DHT22;1427;48.510;9.060;2022-11-10T04:08:56;8.90;99.90
2839;DHT22;1427;48.510;9.060;2022-11-10T04:11:29;9.00;99.90
2839;DHT22;1427;48.510;9.060;2022-11-10T04:14:15;9.00;99.90
2839;DHT22;1427;48.510;9.060;2022-11-10T04:17:02;9.10;99.90
2839;DHT22;1427;48.510;9.060;2022-11-10T04:19:31;9.10;99.90
2839;DHT22;1427;48.510;9.060;2022-11-10T04:21:59;9.10;99.90
2839;DHT22;1427;48.510;9.060;2022-11-10T04:24:27;9.10;99.90
2839;DHT22;1427;48.510;9.060;2022-11-10T04:26:55;9.00;99.90
2839;DHT22;1427;48.510;9.060;2022-11-10T04:29:23;9.00;99.90
2839;DHT22;1427;48.510;9.060;2022-11-10T04:31:51;9.00;99.90
2839;DHT22;1427;48.510;9.060;2022-11-10T04:34:21;9.00;99.90
2839;DHT22;1427;48.510;9.060;2022-11-10T04:36:49;9.00;99.90
2839;DHT22;1427;48.510;9.060;2022-11-10T04:39:17;9.00;99.90
2839;DHT22;1427;48.510;9.060;2022-11-10T04:41:45;9.00;99.90
2839;DHT22;1427;48.510;9.060;2022-11-10T04:44:14;9.00;99.90
2839;DHT22;1427;48.510;9.060;2022-11-10T04:46:42;9.00;99.90
2839;DHT22;1427;48.510;9.060;2022-11-10T04:49:11;9.00;99.90
2839;DHT22;1427;48.510;9.060;2022-11-10T04:51:40;8.90;99.90
2839;DHT22;1427;48.510;9.060;2022-11-10T04:54:10;8.90;99.90
2839;DHT22;1427;48.510;9.060;2022-11-10T04:56:38;8.90;99.90
2839;DHT22;1427;48.510;9.060;2022-11-10T04:59:06;8.90;99.90
2839;DHT22;1427;48.510;9.060;2022-11-10T05:01:35;8.80;99.90
2839;DHT22;1427;48.510;9.060;2022-11-10T05:04:03;8.90;99.90
2839;DHT22;1427;48.510;9.060;2022-11-10T05:06:31;8.90;99.90
2839;DHT22;1427;48.510;9.060;2022-11-10T05:09:01;8.80;99.90
2839;DHT22;1427;48.510;9.060;2022-11-10T05:11:29;8.70;99.90
2839;DHT22;1427;48.510;9.060;2022-11-10T05:13:57;8.60;99.90
2839;DHT22;1427;48.510;9.060;2022-11-10T05:16:25;8.50;99.90
2839;DHT22;1427;48.510;9.060;2022-11-10T05:18:53;8.40;99.90
2839;DHT22;1427;48.510;9.060;2022-11-10T05:21:24;8.50;99.90
2839;DHT22;1427;48.510;9.060;2022-11-10T05:23:52;8.60;99.90
2839;DHT22;1427;48.510;9.060;2022-11-10T05:26:21;8.60;99.90
2839;DHT22;1427;48.510;9.060;2022-11-10T05:28:49;8.60;99.90
2839;DHT22;1427;48.510;9.060;2022-11-10T05:31:17;8.70;99.90
2839;DHT22;1427;48.510;9.060;2022-11-10T05:33:45;8.40;99.90
2839;DHT22;1427;48.510;9.060;2022-11-10T05:36:13;8.50;99.90
2839;DHT22;1427;48.510;9.060;2022-11-10T05:38:41;8.50;99.90
2839;DHT22;1427;48.510;9.060;2022-11-10T05:41:10;8.40;99.90
2839;DHT22;1427;48.510;9.060;2022-11-10T05:43:39;8.50;99.90
2839;DHT22;1427;48.510;9.060;2022-11-10T05:46:07;8.60;99.90
2839;DHT22;1427;48.510;9.060;2022-11-10T05:48:35;8.60;99.90
2839;DHT22;1427;48.510;9.060;2022-11-10T05:51:04;8.50;99.90
2839;DHT22;1427;48.510;9.060;2022-11-10T05:53:32;8.50;99.90
2839;DHT22;1427;48.510;9.060;2022-11-10T05:56:00;8.60;99.90
2839;DHT22;1427;48.510;9.060;2022-11-10T05:58:28;8.60;99.90
2839;DHT22;1427;48.510;9.060;2022-11-10T06:00:58;8.60;99.90
2839;DHT22;1427;48.510;9.060;2022-11-10T06:03:26;8.60;99.90
2839;DHT22;1427;48.510;9.060;2022-11-10T06:05:54;8.50;99.90
2839;DHT22;1427;48.510;9.060;2022-11-10T06:08:22;8.50;99.90
2839;DHT22;1427;48.510;9.060;2022-11-10T06:10:50;8.60;99.90
2839;DHT22;1427;48.510;9.060;2022-11-10T06:13:19;8.70;99.90
2839;DHT22;1427;48.510;9.060;2022-11-10T06:15:48;8.60;99.90
2839;DHT22;1427;48.510;9.060;2022-11-10T06:18:20;8.50;99.90
2839;DHT22;1427;48.510;9.060;2022-11-10T06:20:48;8.40;99.90
2839;DHT22;1427;48.510;9.060;2022-11-10T06:23:16;8.40;99.90
2839;DHT22;1427;48.510;9.060;2022-11-10T06:25:45;8.40;99.90
2839;DHT22;1427;48.510;9.060;2022-11-10T06:28:13;8.30;99.90
2839;DHT22;1427;48.510;9.060;2022-11-10T06:30:41;8.30;99.90
2839;DHT22;1427;48.510;9.060;2022-11-10T06:33:10;8.30;99.90
2839;DHT22;1427;48.510;9.060;2022-11-10T06:35:39;8.30;99.90
2839;DHT22;1427;48.510;9.060;2022-11-10T06:38:09;8.30;99.90
2839;DHT22;1427;48.510;9.060;2022-11-10T06:40:38;8.40;99.90
2839;DHT22;1427;48.510;9.060;2022-11-10T06:43:06;8.40;99.90
2839;DHT22;1427;48.510;9.060;2022-11-10T06:45:34;8.40;99.90
2839;DHT22;1427;48.510;9.060;2022-11-10T06:48:04;8.30;99.90
2839;DHT22;1427;48.510;9.060;2022-11-10T06:50:33;8.40;99.90
2839;DHT22;1427;48.510;9.060;2022-11-10T06:53:03;8.30;99.90
2839;DHT22;1427;48.510;9.060;2022-11-10T06:55:31;8.40;99.90
2839;DHT22;1427;48.510;9.060;2022-11-10T06:57:59;8.40;99.90
2839;DHT22;1427;48.510;9.060;2022-11-10T07:00:28;8.50;99.90
2839;DHT22;1427;48.510;9.060;2022-11-10T07:03:00;8.50;99.90
2839;DHT22;1427;48.510;9.060;2022-11-10T07:05:29;8.50;99.90
2839;DHT22;1427;48.510;9.060;2022-11-10T07:08:02;8.50;99.90
2839;DHT22;1427;48.510;9.060;2022-11-10T07:10:31;8.50;99.90
2839;DHT22;1427;48.510;9.060;2022-11-10T07:12:59;8.60;99.90
2839;DHT22;1427;48.510;9.060;2022-11-10T07:15:28;8.60;99.90
2839;DHT22;1427;48.510;9.060;2022-11-10T07:17:56;8.60;99.90
2839;DHT22;1427;48.510;9.060;2022-11-10T07:20:24;8.80;99.90
2839;DHT22;1427;48.510;9.060;2022-11-10T07:22:58;8.80;99.90
2839;DHT22;1427;48.510;9.060;2022-11-10T07:25:29;8.80;99.90
2839;DHT22;1427;48.510;9.060;2022-11-10T07:27:59;8.80;99.90
2839;DHT22;1427;48.510;9.060;2022-11-10T07:30:28;8.70;99.90
2839;DHT22;1427;48.510;9.060;2022-11-10T07:32:58;8.70;99.90
2839;DHT22;1427;48.510;9.060;2022-11-10T07:35:27;8.70;99.90
2839;DHT22;1427;48.510;9.060;2022-11-10T07:37:56;8.90;99.90
2839;DHT22;1427;48.510;9.060;2022-11-10T07:40:24;8.70;99.90
2839;DHT22;1427;48.510;9.060;2022-11-10T07:42:54;8.70;99.90
2839;DHT22;1427;48.510;9.060;2022-11-10T07:45:22;8.70;99.90
2839;DHT22;1427;48.510;9.060;2022-11-10T07:47:50;8.70;99.90
2839;DHT22;1427;48.510;9.060;2022-11-10T07:50:18;8.70;99.90
2839;DHT22;1427;48.510;9.060;2022-11-10T07:52:46;8.80;99.90
2839;DHT22;1427;48.510;9.060;2022-11-10T07:55:15;8.90;99.90
2839;DHT22;1427;48.510;9.060;2022-11-10T07:57:43;8.80;99.90
2839;DHT22;1427;48.510;9.060;2022-11-10T08:00:13;8.60;99.90
2839;DHT22;1427;48.510;9.060;2022-11-10T08:02:42;8.60;99.90
2839;DHT22;1427;48.510;9.060;2022-11-10T08:05:10;8.60;99.90
2839;DHT22;1427;48.510;9.060;2022-11-10T08:07:38;8.60;99.90
2839;DHT22;1427;48.510;9.060;2022-11-10T08:10:07;8.60;99.90
2839;DHT22;1427;48.510;9.060;2022-11-10T08:12:36;8.50;99.90
2839;DHT22;1427;48.510;9.060;2022-11-10T08:15:05;8.20;99.90
2839;DHT22;1427;48.510;9.060;2022-11-10T08:17:37;8.30;99.90
2839;DHT22;1427;48.510;9.060;2022-11-10T08:20:06;8.40;99.90
2839;DHT22;1427;48.510;9.060;2022-11-10T08:22:34;8.50;99.90
2839;DHT22;1427;48.510;9.060;2022-11-10T08:25:03;8.50;99.90
2839;DHT22;1427;48.510;9.060;2022-11-10T08:27:31;8.50;99.90
2839;DHT22;1427;48.510;9.060;2022-11-10T08:30:00;8.40;99.90
2839;DHT22;1427;48.510;9.060;2022-11-10T08:32:28;8.40;99.90
2839;DHT22;1427;48.510;9.060;2022-11-10T08:34:57;8.40;99.90
2839;DHT22;1427;48.510;9.060;2022-11-10T08:37:25;8.40;99.90
2839;DHT22;1427;48.510;9.060;2022-11-10T08:39:54;8.50;99.90
2839;DHT22;1427;48.510;9.060;2022-11-10T08:42:22;8.60;99.90
2839;DHT22;1427;48.510;9.060;2022-11-10T08:44:50;8.70;99.90
2839;DHT22;1427;48.510;9.060;2022-11-10T08:47:18;8.70;99.90
2839;DHT22;1427;48.510;9.060;2022-11-10T08:49:47;8.80;99.90
2839;DHT22;1427;48.510;9.060;2022-11-10T08:52:16;8.90;99.90
2839;DHT22;1427;48.510;9.060;2022-11-10T08:54:44;9.00;99.90
2839;DHT22;1427;48.510;9.060;2022-11-10T08:57:12;9.10;99.90
2839;DHT22;1427;48.510;9.060;2022-11-10T08:59:40;9.30;99.90
2839;DHT22;1427;48.510;9.060;2022-11-10T09:02:09;9.20;99.90
2839;DHT22;1427;48.510;9.060;2022-11-10T09:04:37;9.30;99.90
2839;DHT22;1427;48.510;9.060;2022-11-10T09:07:05;9.30;99.90
2839;DHT22;1427;48.510;9.060;2022-11-10T09:09:35;9.50;99.90
2839;DHT22;1427;48.510;9.060;2022-11-10T09:12:03;9.80;99.90
2839;DHT22;1427;48.510;9.060;2022-11-10T09:14:32;10.10;99.90
2839;DHT22;1427;48.510;9.060;2022-11-10T09:17:00;10.10;99.90
2839;DHT22;1427;48.510;9.060;2022-11-10T09:19:28;10.10;99.90
2839;DHT22;1427;48.510;9.060;2022-11-10T09:21:56;10.10;99.90
2839;DHT22;1427;48.510;9.060;2022-11-10T09:24:24;10.10;99.90
2839;DHT22;1427;48.510;9.060;2022-11-10T09:26:58;10.20;99.90
2839;DHT22;1427;48.510;9.060;2022-11-10T09:29:26;10.50;99.90
2839;DHT22;1427;48.510;9.060;2022-11-10T09:31:54;10.70;99.90
2839;DHT22;1427;48.510;9.060;2022-11-10T09:34:22;10.80;99.90
2839;DHT22;1427;48.510;9.060;2022-11-10T09:36:51;10.90;99.90
2839;DHT22;1427;48.510;9.060;2022-11-10T09:39:19;11.00;99.90
2839;DHT22;1427;48.510;9.060;2022-11-10T09:41:47;11.30;99.90
2839;DHT22;1427;48.510;9.060;2022-11-10T09:44:22;11.60;99.90
2839;DHT22;1427;48.510;9.060;2022-11-10T09:46:55;11.60;99.90
2839;DHT22;1427;48.510;9.060;2022-11-10T09:49:28;11.60;99.90
2839;DHT22;1427;48.510;9.060;2022-11-10T09:51:59;11.80;99.90
2839;DHT22;1427;48.510;9.060;2022-11-10T09:54:33;11.50;99.90
2839;DHT22;1427;48.510;9.060;2022-11-10T09:57:05;11.30;99.90
2839;DHT22;1427;48.510;9.060;2022-11-10T09:59:35;11.30;99.90
2839;DHT22;1427;48.510;9.060;2022-11-10T10:02:07;11.40;99.90
2839;DHT22;1427;48.510;9.060;2022-11-10T10:04:57;11.50;99.90
2839;DHT22;1427;48.510;9.060;2022-11-10T10:07:33;11.90;99.90
2839;DHT22;1427;48.510;9.060;2022-11-10T10:10:11;12.10;99.90
2839;DHT22;1427;48.510;9.060;2022-11-10T10:12:53;12.20;99.90
2839;DHT22;1427;48.510;9.060;2022-11-10T10:15:31;12.30;99.90
2839;DHT22;1427;48.510;9.060;2022-11-10T10:18:11;12.60;99.90
2839;DHT22;1427;48.510;9.060;2022-11-10T10:20:50;13.10;99.90
2839;DHT22;1427;48.510;9.060;2022-11-10T10:23:26;14.10;99.90
2839;DHT22;1427;48.510;9.060;2022-11-10T10:26:18;14.30;99.90
2839;DHT22;1427;48.510;9.060;2022-11-10T10:28:49;14.80;99.90
2839;DHT22;1427;48.510;9.060;2022-11-10T10:31:21;16.60;99.90
2839;DHT22;1427;48.510;9.060;2022-11-10T10:33:51;19.50;99.90
2839;DHT22;1427;48.510;9.060;2022-11-10T10:36:24;20.90;99.90
2839;DHT22;1427;48.510;9.060;2022-11-10T10:38:54;22.50;99.90
2839;DHT22;1427;48.510;9.060;2022-11-10T10:41:24;25.40;97.00
2839;DHT22;1427;48.510;9.060;2022-11-10T10:43:55;27.90;92.10
2839;DHT22;1427;48.510;9.060;2022-11-10T10:46:25;29.20;90.20
2839;DHT22;1427;48.510;9.060;2022-11-10T10:49:11;30.30;86.50
2839;DHT22;1427;48.510;9.060;2022-11-10T10:52:05;30.20;79.30
2839;DHT22;1427;48.510;9.060;2022-11-10T10:54:35;31.10;80.10
2839;DHT22;1427;48.510;9.060;2022-11-10T10:57:14;32.10;76.80
2839;DHT22;1427;48.510;9.060;2022-11-10T10:59:45;32.40;75.50
2839;DHT22;1427;48.510;9.060;2022-11-10T11:02:24;32.90;74.30
2839;DHT22;1427;48.510;9.060;2022-11-10T11:05:18;33.10;74.00
2839;DHT22;1427;48.510;9.060;2022-11-10T11:07:53;33.40;71.40
2839;DHT22;1427;48.510;9.060;2022-11-10T11:10:23;33.60;70.80
2839;DHT22;1427;48.510;9.060;2022-11-10T11:12:52;33.00;69.10
2839;DHT22;1427;48.510;9.060;2022-11-10T11:15:22;32.30;72.80
2839;DHT22;1427;48.510;9.060;2022-11-10T11:17:55;32.10;72.70
2839;DHT22;1427;48.510;9.060;2022-11-10T11:20:34;31.80;74.50
2839;DHT22;1427;48.510;9.060;2022-11-10T11:23:28;31.20;71.70
2839;DHT22;1427;48.510;9.060;2022-11-10T11:26:06;30.40;74.60
2839;DHT22;1427;48.510;9.060;2022-11-10T11:28:43;29.80;73.80
2839;DHT22;1427;48.510;9.060;2022-11-10T11:31:20;28.50;76.90
2839;DHT22;1427;48.510;9.060;2022-11-10T11:33:58;28.10;78.80
2839;DHT22;1427;48.510;9.060;2022-11-10T11:36:34;27.50;79.80
2839;DHT22;1427;48.510;9.060;2022-11-10T11:39:15;27.50;80.90
2839;DHT22;1427;48.510;9.060;2022-11-10T11:41:51;26.80;76.80
2839;DHT22;1427;48.510;9.060;2022-11-10T11:44:44;25.70;77.70
2839;DHT22;1427;48.510;9.060;2022-11-10T11:47:27;25.00;81.60
2839;DHT22;1427;48.510;9.060;2022-11-10T11:50:14;25.00;83.30
2839;DHT22;1427;48.510;9.060;2022-11-10T11:52:54;25.40;85.00
2839;DHT22;1427;48.510;9.060;2022-11-10T11:55:34;25.40;83.30
2839;DHT22;1427;48.510;9.060;2022-11-10T11:58:20;25.60;81.80
2839;DHT22;1427;48.510;9.060;2022-11-10T12:00:58;25.30;81.60
2839;DHT22;1427;48.510;9.060;2022-11-10T12:03:48;24.60;81.50
2839;DHT22;1427;48.510;9.060;2022-11-10T12:06:29;23.60;84.00
2839;DHT22;1427;48.510;9.060;2022-11-10T12:09:01;23.20;85.40
2839;DHT22;1427;48.510;9.060;2022-11-10T12:11:46;23.50;87.20
2839;DHT22;1427;48.510;9.060;2022-11-10T12:14:25;23.80;85.80
2839;DHT22;1427;48.510;9.060;2022-11-10T12:17:01;24.10;84.10
2839;DHT22;1427;48.510;9.060;2022-11-10T12:19:37;23.60;83.40
2839;DHT22;1427;48.510;9.060;2022-11-10T12:22:15;23.30;85.40
2839;DHT22;1427;48.510;9.060;2022-11-10T12:25:02;22.90;85.70
2839;DHT22;1427;48.510;9.060;2022-11-10T12:27:36;22.80;87.30
2839;DHT22;1427;48.510;9.060;2022-11-10T12:30:09;22.80;86.50
2839;DHT22;1427;48.510;9.060;2022-11-10T12:32:41;23.10;86.60
2839;DHT22;1427;48.510;9.060;2022-11-10T12:35:15;23.30;85.70
2839;DHT22;1427;48.510;9.060;2022-11-10T12:37:50;23.00;85.80
2839;DHT22;1427;48.510;9.060;2022-11-10T12:40:20;23.20;86.80
2839;DHT22;1427;48.510;9.060;2022-11-10T12:42:54;23.60;86.30
2839;DHT22;1427;48.510;9.060;2022-11-10T12:45:26;23.70;84.30
2839;DHT22;1427;48.510;9.060;2022-11-10T12:47:58;23.40;84.40
2839;DHT22;1427;48.510;9.060;2022-11-10T12:50:37;23.40;83.80
2839;DHT22;1427;48.510;9.060;2022-11-10T12:53:13;23.60;83.60
2839;DHT22;1427;48.510;9.060;2022-11-10T12:55:45;23.30;83.50
2839;DHT22;1427;48.510;9.060;2022-11-10T12:58:14;22.80;85.90
2839;DHT22;1427;48.510;9.060;2022-11-10T13:00:44;22.70;84.80
2839;DHT22;1427;48.510;9.060;2022-11-10T13:03:26;22.90;84.60
2839;DHT22;1427;48.510;9.060;2022-11-10T13:05:57;22.90;85.30
2839;DHT22;1427;48.510;9.060;2022-11-10T13:08:30;23.00;84.40
2839;DHT22;1427;48.510;9.060;2022-11-10T13:11:04;23.10;83.80
2839;DHT22;1427;48.510;9.060;2022-11-10T13:13:40;23.20;84.90
2839;DHT22;1427;48.510;9.060;2022-11-10T13:16:48;23.60;85.10
2839;DHT22;1427;48.510;9.060;2022-11-10T13:19:46;24.00;86.20
2839;DHT22;1427;48.510;9.060;2022-11-10T13:22:31;24.30;82.70
2839;DHT22;1427;48.510;9.060;2022-11-10T13:28:07;24.50;82.30
2839;DHT22;1427;48.510;9.060;2022-11-10T13:30:41;24.40;82.70
2839;DHT22;1427;48.510;9.060;2022-11-10T13:33:32;24.10;80.90
2839;DHT22;1427;48.510;9.060;2022-11-10T13:36:02;23.70;81.70
2839;DHT22;1427;48.510;9.060;2022-11-10T13:38:35;23.50;81.00
2839;DHT22;1427;48.510;9.060;2022-11-10T13:41:21;23.80;84.40
2839;DHT22;1427;48.510;9.060;2022-11-10T13:43:52;24.00;81.30
2839;DHT22;1427;48.510;9.060;2022-11-10T13:46:29;24.20;82.90
2839;DHT22;1427;48.510;9.060;2022-11-10T13:49:18;24.20;81.70
2839;DHT22;1427;48.510;9.060;2022-11-10T13:51:54;23.90;82.80
2839;DHT22;1427;48.510;9.060;2022-11-10T13:54:53;23.80;82.20
2839;DHT22;1427;48.510;9.060;2022-11-10T13:57:28;24.10;80.60
2839;DHT22;1427;48.510;9.060;2022-11-10T13:59:59;24.20;81.50
2839;DHT22;1427;48.510;9.060;2022-11-10T14:02:58;24.70;80.30
2839;DHT22;1427;48.510;9.060;2022-11-10T14:06:03;26.50;76.60
2839;DHT22;1427;48.510;9.060;2022-11-10T14:08:45;28.60;71.10
2839;DHT22;1427;48.510;9.060;2022-11-10T14:11:23;30.40;67.80
2839;DHT22;1427;48.510;9.060;2022-11-10T14:13:56;31.20;65.00
2839;DHT22;1427;48.510;9.060;2022-11-10T14:16:29;31.90;64.80
2839;DHT22;1427;48.510;9.060;2022-11-10T14:19:02;31.90;63.20
2839;DHT22;1427;48.510;9.060;2022-11-10T14:21:37;32.20;63.50
2839;DHT22;1427;48.510;9.060;2022-11-10T14:24:12;32.90;62.20
2839;DHT22;1427;48.510;9.060;2022-11-10T14:26:45;33.50;60.40
2839;DHT22;1427;48.510;9.060;2022-11-10T14:29:26;33.20;59.70
2839;DHT22;1427;48.510;9.060;2022-11-10T14:31:55;32.70;58.40
2839;DHT22;1427;48.510;9.060;2022-11-10T14:34:24;31.70;60.10
2839;DHT22;1427;48.510;9.060;2022-11-10T14:36:56;31.50;60.10
2839;DHT22;1427;48.510;9.060;2022-11-10T14:39:28;31.00;61.30
2839;DHT22;1427;48.510;9.060;2022-11-10T14:42:00;30.10;60.60
2839;DHT22;1427;48.510;9.060;2022-11-10T14:44:30;29.40;62.50
2839;DHT22;1427;48.510;9.060;2022-11-10T14:47:13;27.60;65.10
2839;DHT22;1427;48.510;9.060;2022-11-10T14:49:41;25.70;68.80
2839;DHT22;1427;48.510;9.060;2022-11-10T14:52:12;24.10;71.20
2839;DHT22;1427;48.510;9.060;2022-11-10T14:54:43;22.80;74.40
2839;DHT22;1427;48.510;9.060;2022-11-10T14:59:40;20.30;80.70
2839;DHT22;1427;48.510;9.060;2022-11-10T15:02:11;19.50;82.90
2839;DHT22;1427;48.510;9.060;2022-11-10T15:04:41;18.90;84.70
2839;DHT22;1427;48.510;9.060;2022-11-10T15:07:13;18.40;86.90
2839;DHT22;1427;48.510;9.060;2022-11-10T15:10:02;17.90;88.80
2839;DHT22;1427;48.510;9.060;2022-11-10T15:12:30;17.50;90.50
2839;DHT22;1427;48.510;9.060;2022-11-10T15:15:21;17.10;90.90
2839;DHT22;1427;48.510;9.060;2022-11-10T15:17:50;16.70;91.70
2839;DHT22;1427;48.510;9.060;2022-11-10T15:20:30;16.60;91.90
2839;DHT22;1427;48.510;9.060;2022-11-10T15:23:01;16.40;92.30
2839;DHT22;1427;48.510;9.060;2022-11-10T15:25:33;16.30;93.20
2839;DHT22;1427;48.510;9.060;2022-11-10T15:28:04;15.90;94.30
2839;DHT22;1427;48.510;9.060;2022-11-10T15:30:33;15.60;94.70
2839;DHT22;1427;48.510;9.060;2022-11-10T15:33:08;15.50;95.30
2839;DHT22;1427;48.510;9.060;2022-11-10T15:35:37;15.30;96.00
2839;DHT22;1427;48.510;9.060;2022-11-10T15:38:28;15.30;95.90
2839;DHT22;1427;48.510;9.060;2022-11-10T15:41:14;15.30;96.30
2839;DHT22;1427;48.510;9.060;2022-11-10T15:43:42;15.00;97.20
2839;DHT22;1427;48.510;9.060;2022-11-10T15:46:16;14.90;97.50
2839;DHT22;1427;48.510;9.060;2022-11-10T15:48:46;14.80;98.40
2839;DHT22;1427;48.510;9.060;2022-11-10T15:51:16;14.70;98.60
2839;DHT22;1427;48.510;9.060;2022-11-10T15:53:53;14.50;99.90
2839;DHT22;1427;48.510;9.060;2022-11-10T15:56:23;14.20;99.90
2839;DHT22;1427;48.510;9.060;2022-11-10T15:58:52;14.10;99.90
2839;DHT22;1427;48.510;9.060;2022-11-10T16:01:27;13.80;99.90
2839;DHT22;1427;48.510;9.060;2022-11-10T16:03:55;13.70;99.90
2839;DHT22;1427;48.510;9.060;2022-11-10T16:06:23;13.70;99.90
2839;DHT22;1427;48.510;9.060;2022-11-10T16:08:54;13.40;99.90
2839;DHT22;1427;48.510;9.060;2022-11-10T16:11:22;13.30;99.90
2839;DHT22;1427;48.510;9.060;2022-11-10T16:13:52;13.30;99.90
2839;DHT22;1427;48.510;9.060;2022-11-10T16:16:20;13.20;99.90
2839;DHT22;1427;48.510;9.060;2022-11-10T16:18:50;13.00;99.90
2839;DHT22;1427;48.510;9.060;2022-11-10T16:21:20;12.90;99.90
2839;DHT22;1427;48.510;9.060;2022-11-10T16:23:49;12.80;99.90
2839;DHT22;1427;48.510;9.060;2022-11-10T16:26:21;12.70;99.90
2839;DHT22;1427;48.510;9.060;2022-11-10T16:28:49;12.60;99.90
2839;DHT22;1427;48.510;9.060;2022-11-10T16:31:19;12.50;99.90
2839;DHT22;1427;48.510;9.060;2022-11-10T16:33:48;12.40;99.90
2839;DHT22;1427;48.510;9.060;2022-11-10T16:36:22;12.30;99.90
2839;DHT22;1427;48.510;9.060;2022-11-10T16:38:51;12.30;99.90
2839;DHT22;1427;48.510;9.060;2022-11-10T16:41:22;12.30;99.90
2839;DHT22;1427;48.510;9.060;2022-11-10T16:43:50;12.30;99.90